Time;durP1;ratioP1;P1;durP2;ratioP2;P2;SDS_P1;SDS_P2;PMS_P1;PMS_P2;Temp;Humidity;BMP_temperature;BMP_pressure;BME280_temperature;BME280_humidity;BME280_pressure;Samples;Min_cycle;Max_cycle;Signal;HPM_P1;HPM_P2
2022/11/29 00:00:29;;;;;;;;;5.33;4.00;;;;;-146.44;100.00;58906.56;5016285;28;45686;-55
2022/11/29 00:02:54;;;;;;;;;5.00;5.00;;;;;-146.44;100.00;58906.56;5018307;28;45502;-54
2022/11/29 00:05:19;;;;;;;;;6.33;6.00;;;;;-146.44;100.00;58906.56;5016571;28;45426;-55
2022/11/29 00:07:45;;;;;;;;;4.00;4.00;;;;;-146.44;100.00;58906.56;5016321;28;47987;-53
2022/11/29 00:10:10;;;;;;;;;6.00;5.00;;;;;-146.44;100.00;58906.56;5015865;28;63705;-55
2022/11/29 00:12:35;;;;;;;;;5.00;5.00;;;;;-146.44;100.00;58906.56;5016748;28;45360;-55
2022/11/29 00:15:01;;;;;;;;;9.00;7.33;;;;;-146.44;100.00;58906.56;5031808;28;45459;-51
2022/11/29 00:17:26;;;;;;;;;4.33;4.33;;;;;-146.44;100.00;58906.56;5016287;28;45584;-53
2022/11/29 00:19:51;;;;;;;;;8.00;6.00;;;;;-146.44;100.00;58906.56;5016854;28;45454;-50
2022/11/29 00:22:17;;;;;;;;;6.00;6.00;;;;;-146.44;100.00;58906.56;5016137;28;45450;-54
2022/11/29 00:24:42;;;;;;;;;6.00;6.00;;;;;-146.44;100.00;58906.56;5015820;28;45450;-53
2022/11/29 00:27:07;;;;;;;;;5.00;5.00;;;;;-146.44;100.00;58906.56;5016226;28;45502;-55
2022/11/29 00:29:33;;;;;;;;;5.33;5.33;;;;;-146.44;100.00;58906.56;5015878;28;51057;-53
2022/11/29 00:31:58;;;;;;;;;4.00;4.00;;;;;-146.44;100.00;58906.56;5015815;28;49468;-51
2022/11/29 00:34:24;;;;;;;;;4.00;3.67;;;;;-146.44;100.00;58906.56;5014420;28;45482;-52
2022/11/29 00:36:50;;;;;;;;;5.00;5.00;;;;;-146.44;100.00;58906.56;5016080;28;45469;-55
2022/11/29 00:39:15;;;;;;;;;5.00;5.00;;;;;-146.44;100.00;58906.56;5015961;28;46232;-54
2022/11/29 00:41:41;;;;;;;;;3.33;3.33;;;;;-146.44;100.00;58906.56;5029085;28;45531;-54
2022/11/29 00:44:06;;;;;;;;;4.33;4.33;;;;;-146.44;100.00;58906.56;5016078;28;45486;-55
2022/11/29 00:46:32;;;;;;;;;5.33;4.00;;;;;-146.44;100.00;58906.56;5015779;28;45835;-51
2022/11/29 00:48:57;;;;;;;;;5.33;4.00;;;;;-146.44;100.00;58906.56;5015683;28;45419;-54
2022/11/29 00:51:22;;;;;;;;;3.00;3.00;;;;;-146.44;100.00;58906.56;5015451;28;49919;-56
2022/11/29 00:53:48;;;;;;;;;5.00;3.00;;;;;-146.44;100.00;58906.56;5016124;28;45363;-55
2022/11/29 00:56:13;;;;;;;;;4.67;4.67;;;;;-146.44;100.00;58906.56;5016018;28;45494;-56
2022/11/29 00:58:38;;;;;;;;;5.00;5.00;;;;;-146.44;100.00;58906.56;5015520;28;46096;-56
2022/11/29 01:01:04;;;;;;;;;4.33;4.33;;;;;-146.44;100.00;58906.56;5015672;28;45435;-51
2022/11/29 01:03:30;;;;;;;;;5.67;5.00;;;;;-146.44;100.00;58906.56;5015786;28;45466;-55
2022/11/29 01:06:08;;;;;;;;;4.00;4.00;;;;;-146.44;100.00;58906.56;5015695;28;45556;-55
2022/11/29 01:08:34;;;;;;;;;5.00;5.00;;;;;-146.44;100.00;58906.56;5023313;28;46035;-55
2022/11/29 01:11:11;;;;;;;;;4.00;4.00;;;;;-146.44;100.00;58906.56;5015430;28;45462;-55
2022/11/29 01:13:37;;;;;;;;;5.67;5.67;;;;;-146.44;100.00;58906.56;5015319;28;45501;-51
2022/11/29 01:16:04;;;;;;;;;5.33;4.00;;;;;-146.44;100.00;58906.56;5012309;28;45487;-55
2022/11/29 01:18:30;;;;;;;;;8.67;5.00;;;;;-146.44;100.00;58906.56;5012332;28;46594;-53
2022/11/29 01:21:00;;;;;;;;;5.00;5.00;;;;;-146.44;100.00;58906.56;5015419;28;45422;-54
2022/11/29 01:23:26;;;;;;;;;5.33;4.00;;;;;-146.44;100.00;58906.56;5015303;28;45533;-53
2022/11/29 01:26:04;;;;;;;;;4.00;4.00;;;;;-146.44;100.00;58906.56;5015068;28;45442;-55
2022/11/29 01:28:29;;;;;;;;;3.00;3.00;;;;;-146.44;100.00;58906.56;5014727;28;45450;-54
2022/11/29 01:30:55;;;;;;;;;3.00;3.00;;;;;-146.44;100.00;58906.56;5015143;28;45471;-54
2022/11/29 01:33:20;;;;;;;;;2.00;1.00;;;;;-146.44;100.00;58906.56;5015453;28;45537;-54
2022/11/29 01:35:53;;;;;;;;;5.00;5.00;;;;;-146.44;100.00;58906.56;5015499;28;45530;-54
2022/11/29 01:38:20;;;;;;;;;5.00;3.67;;;;;-146.44;100.00;58906.56;5014804;28;47710;-55
2022/11/29 01:41:03;;;;;;;;;3.67;3.67;;;;;-146.44;100.00;58906.56;5014853;28;45615;-54
2022/11/29 01:43:29;;;;;;;;;3.67;2.33;;;;;-146.44;100.00;58906.56;5015172;28;45617;-55
2022/11/29 01:45:54;;;;;;;;;2.33;2.33;;;;;-146.44;100.00;58906.56;5014796;28;45368;-53
2022/11/29 01:48:24;;;;;;;;;4.00;4.00;;;;;-146.44;100.00;58906.56;5014608;28;45431;-52
2022/11/29 01:50:53;;;;;;;;;4.67;4.67;;;;;-146.44;100.00;58906.56;5014856;28;45463;-52
2022/11/29 01:53:19;;;;;;;;;3.00;3.00;;;;;-146.44;100.00;58906.56;5014844;28;45395;-56
2022/11/29 01:55:49;;;;;;;;;4.67;3.67;;;;;-146.44;100.00;58906.56;5014754;28;45477;-55
2022/11/29 01:58:14;;;;;;;;;4.00;4.00;;;;;-146.44;100.00;58906.56;5014652;28;45418;-53
2022/11/29 02:00:40;;;;;;;;;3.00;3.00;;;;;-146.44;100.00;58906.56;5014768;28;45461;-55
2022/11/29 02:03:11;;;;;;;;;3.00;3.00;;;;;-146.44;100.00;58906.56;5024126;28;45419;-53
2022/11/29 02:05:39;;;;;;;;;5.67;5.67;;;;;-146.44;100.00;58906.56;5014768;28;45534;-55
2022/11/29 02:08:07;;;;;;;;;3.00;3.00;;;;;-146.44;100.00;58906.56;5014104;28;46173;-55
2022/11/29 02:10:50;;;;;;;;;4.00;4.00;;;;;-146.44;100.00;58906.56;5014590;28;45585;-51
2022/11/29 02:13:36;;;;;;;;;2.33;2.33;;;;;-146.44;100.00;58906.56;5014529;28;45566;-54
2022/11/29 02:16:28;;;;;;;;;4.00;4.00;;;;;-146.44;100.00;58906.56;5014741;28;46215;-53
2022/11/29 02:19:31;;;;;;;;;3.33;3.33;;;;;-146.44;100.00;58906.56;5012609;28;45566;-50
2022/11/29 02:22:06;;;;;;;;;4.00;3.00;;;;;-146.44;100.00;58906.56;5001102;28;45483;-52
2022/11/29 02:24:56;;;;;;;;;4.33;4.33;;;;;-146.44;100.00;58906.56;5014468;28;45540;-51
2022/11/29 02:27:30;;;;;;;;;5.67;3.00;;;;;-146.44;100.00;58906.56;5002724;28;45728;-55
2022/11/29 02:30:05;;;;;;;;;5.00;4.67;;;;;-146.44;100.00;58906.56;5013954;28;45450;-52
2022/11/29 02:32:36;;;;;;;;;5.00;4.00;;;;;-146.44;100.00;58906.56;5014756;28;45536;-52
2022/11/29 02:35:31;;;;;;;;;4.33;4.33;;;;;-146.44;100.00;58906.56;5014027;28;45554;-56
2022/11/29 02:38:27;;;;;;;;;3.00;3.00;;;;;-146.44;100.00;58906.56;5014407;28;45490;-54
2022/11/29 02:40:59;;;;;;;;;4.00;4.00;;;;;-146.44;100.00;58906.56;5014103;28;46346;-55
2022/11/29 02:44:12;;;;;;;;;3.00;3.00;;;;;-146.44;100.00;58906.56;5014036;28;45533;-53
2022/11/29 02:46:45;;;;;;;;;5.33;5.00;;;;;-146.44;100.00;58906.56;5013994;28;45492;-54
2022/11/29 02:49:48;;;;;;;;;4.00;4.00;;;;;-146.44;100.00;58906.56;5013675;28;45656;-55
2022/11/29 02:52:16;;;;;;;;;2.00;2.00;;;;;-146.44;100.00;58906.56;5013924;28;45577;-55
2022/11/29 02:55:05;;;;;;;;;4.00;4.00;;;;;-146.44;100.00;58906.56;5014005;28;45558;-55
2022/11/29 02:57:39;;;;;;;;;3.00;3.00;;;;;-146.44;100.00;58906.56;5012595;28;45538;-56
2022/11/29 03:00:08;;;;;;;;;4.67;4.00;;;;;-146.44;100.00;58906.56;5014017;28;45691;-55
2022/11/29 03:02:45;;;;;;;;;4.00;4.00;;;;;-146.44;100.00;58906.56;5013654;28;46444;-52
2022/11/29 03:05:49;;;;;;;;;3.00;3.00;;;;;-146.44;100.00;58906.56;5013764;28;45453;-53
2022/11/29 03:08:36;;;;;;;;;3.00;3.00;;;;;-146.44;100.00;58906.56;4990620;28;45513;-56
2022/11/29 03:11:45;;;;;;;;;5.00;4.00;;;;;-146.44;100.00;58906.56;5013783;28;45492;-53
2022/11/29 03:14:29;;;;;;;;;7.33;6.00;;;;;-146.44;100.00;58906.56;5010113;28;45428;-55
2022/11/29 03:17:20;;;;;;;;;5.67;5.67;;;;;-146.44;100.00;58906.56;5011370;28;45512;-55
2022/11/29 03:20:03;;;;;;;;;4.00;4.00;;;;;-146.44;100.00;58906.56;5013716;28;46165;-53
2022/11/29 03:22:59;;;;;;;;;3.67;3.67;;;;;-146.44;100.00;58906.56;5013463;28;46032;-56
2022/11/29 03:25:31;;;;;;;;;4.67;4.33;;;;;-146.44;100.00;58906.56;5013066;28;46190;-56
2022/11/29 03:28:19;;;;;;;;;6.00;5.00;;;;;-146.44;100.00;58906.56;5013507;28;45352;-54
2022/11/29 03:31:18;;;;;;;;;6.33;4.33;;;;;-146.44;100.00;58906.56;5023387;28;45509;-52
2022/11/29 03:33:59;;;;;;;;;5.33;4.00;;;;;-146.44;100.00;58906.56;5016914;28;45645;-55
2022/11/29 03:36:44;;;;;;;;;8.00;5.00;;;;;-146.44;100.00;58906.56;5016854;28;47567;-54
2022/11/29 03:39:19;;;;;;;;;3.00;3.00;;;;;-146.44;100.00;58906.56;5015520;28;45538;-56
2022/11/29 03:41:58;;;;;;;;;4.33;4.33;;;;;-146.44;100.00;58906.56;5015526;28;45525;-54
2022/11/29 03:44:34;;;;;;;;;6.33;4.67;;;;;-146.44;100.00;58906.56;5016947;28;45493;-52
2022/11/29 03:47:05;;;;;;;;;6.00;6.00;;;;;-146.44;100.00;58906.56;5016676;28;46196;-57
2022/11/29 03:49:41;;;;;;;;;6.00;6.00;;;;;-146.44;100.00;58906.56;5016875;28;45644;-54
2022/11/29 03:52:28;;;;;;;;;4.00;4.00;;;;;-146.44;100.00;58906.56;5016680;28;45586;-54
2022/11/29 03:55:15;;;;;;;;;9.00;6.67;;;;;-146.44;100.00;58906.56;5016923;28;45497;-55
2022/11/29 03:57:48;;;;;;;;;5.33;5.33;;;;;-146.44;100.00;58906.56;5015954;28;45488;-53
2022/11/29 04:00:15;;;;;;;;;5.67;5.33;;;;;-146.44;100.00;58906.56;5016544;28;45613;-50
2022/11/29 04:03:19;;;;;;;;;4.67;4.67;;;;;-146.44;100.00;58906.56;5016386;28;45577;-54
2022/11/29 04:06:10;;;;;;;;;4.67;4.67;;;;;-146.44;100.00;58906.56;5013318;28;45447;-54
2022/11/29 04:08:53;;;;;;;;;8.67;6.00;;;;;-146.44;100.00;58906.56;5016051;28;45471;-50
2022/11/29 04:11:57;;;;;;;;;3.00;3.00;;;;;-146.44;100.00;58906.56;5016450;28;45387;-53
2022/11/29 04:14:43;;;;;;;;;3.67;3.67;;;;;-146.44;100.00;58906.56;5016398;28;45465;-54
2022/11/29 04:17:27;;;;;;;;;5.33;5.33;;;;;-146.44;100.00;58906.56;5016052;28;45457;-53
2022/11/29 04:20:23;;;;;;;;;4.67;4.67;;;;;-146.44;100.00;58906.56;5029480;28;46362;-56
2022/11/29 04:23:12;;;;;;;;;8.33;4.00;;;;;-146.44;100.00;58906.56;5016024;28;45465;-52
2022/11/29 04:26:08;;;;;;;;;5.00;4.67;;;;;-146.44;100.00;58906.56;5015981;28;45525;-54
2022/11/29 04:29:00;;;;;;;;;4.67;4.67;;;;;-146.44;100.00;58906.56;5015985;28;45460;-54
2022/11/29 04:31:31;;;;;;;;;4.33;4.33;;;;;-146.44;100.00;58906.56;5019563;28;46112;-55
2022/11/29 04:34:21;;;;;;;;;6.00;5.00;;;;;-146.44;100.00;58906.56;5015963;28;45529;-55
2022/11/29 04:36:49;;;;;;;;;4.67;4.67;;;;;-146.44;100.00;58906.56;5016046;28;45514;-57
2022/11/29 04:39:47;;;;;;;;;8.00;6.00;;;;;-146.44;100.00;58906.56;5015574;28;45697;-57
2022/11/29 04:42:18;;;;;;;;;5.00;5.00;;;;;-146.44;100.00;58906.56;5015111;28;45489;-57
2022/11/29 04:44:57;;;;;;;;;4.00;4.00;;;;;-146.44;100.00;58906.56;5015856;28;45532;-54
2022/11/29 04:47:41;;;;;;;;;4.00;4.00;;;;;-146.44;100.00;58906.56;5015992;28;45554;-55
2022/11/29 04:50:09;;;;;;;;;3.00;3.00;;;;;-146.44;100.00;58906.56;5021212;28;45565;-56
2022/11/29 04:52:41;;;;;;;;;5.67;5.67;;;;;-146.44;100.00;58906.56;5015643;28;46244;-55
2022/11/29 04:55:31;;;;;;;;;6.00;6.00;;;;;-146.44;100.00;58906.56;5015680;28;45593;-54
2022/11/29 04:58:34;;;;;;;;;5.00;5.00;;;;;-146.44;100.00;58906.56;5015928;28;45698;-56
2022/11/29 05:01:22;;;;;;;;;6.00;6.00;;;;;-146.44;100.00;58906.56;5012887;28;45564;-52
2022/11/29 05:04:00;;;;;;;;;6.00;6.00;;;;;-146.44;100.00;58906.56;5014869;28;46105;-53
2022/11/29 05:06:42;;;;;;;;;6.67;5.33;;;;;-146.44;100.00;58906.56;5015682;28;45457;-56
2022/11/29 05:09:17;;;;;;;;;7.33;5.67;;;;;-146.44;100.00;58906.56;5015436;28;45801;-54
2022/11/29 05:11:56;;;;;;;;;6.00;6.00;;;;;-146.44;100.00;58906.56;5015535;28;45523;-54
2022/11/29 05:14:48;;;;;;;;;7.33;6.67;;;;;-146.44;100.00;58906.56;5015049;28;45526;-55
2022/11/29 05:17:30;;;;;;;;;8.33;8.33;;;;;-146.44;100.00;58906.56;5015207;28;45509;-54
2022/11/29 05:20:10;;;;;;;;;8.67;6.67;;;;;-146.44;100.00;58906.56;5016030;28;45382;-55
2022/11/29 05:23:10;;;;;;;;;10.00;8.33;;;;;-146.44;100.00;58906.56;5014945;28;45509;-53
2022/11/29 05:26:02;;;;;;;;;6.00;5.00;;;;;-146.44;100.00;58906.56;5006991;28;45573;-55
2022/11/29 05:28:42;;;;;;;;;10.67;8.33;;;;;-146.44;100.00;58906.56;5015019;28;45463;-52
2022/11/29 05:31:18;;;;;;;;;11.00;8.33;;;;;-146.44;100.00;58906.56;5015308;28;45505;-55
2022/11/29 05:33:43;;;;;;;;;6.00;6.00;;;;;-146.44;100.00;58906.56;5015203;28;45556;-55
2022/11/29 05:36:29;;;;;;;;;9.33;6.00;;;;;-146.44;100.00;58906.56;5015151;28;46211;-51
2022/11/29 05:39:14;;;;;;;;;8.67;7.33;;;;;-146.44;100.00;58906.56;5014766;28;45489;-56
2022/11/29 05:41:55;;;;;;;;;8.33;8.33;;;;;-146.44;100.00;58906.56;5014699;28;45459;-56
2022/11/29 05:44:34;;;;;;;;;9.00;9.00;;;;;-146.44;100.00;58906.56;5014948;28;45513;-52
2022/11/29 05:47:05;;;;;;;;;7.67;7.67;;;;;-146.44;100.00;58906.56;5014553;28;46174;-54
2022/11/29 05:49:58;;;;;;;;;7.33;7.33;;;;;-146.44;100.00;58906.56;5014505;28;45576;-53
2022/11/29 05:52:42;;;;;;;;;5.00;5.00;;;;;-146.44;100.00;58906.56;5015870;28;45555;-53
2022/11/29 05:55:14;;;;;;;;;8.67;7.33;;;;;-146.44;100.00;58906.56;5013747;28;45487;-51
2022/11/29 05:57:52;;;;;;;;;6.00;6.00;;;;;-146.44;100.00;58906.56;5029598;28;47381;-53
2022/11/29 06:00:19;;;;;;;;;5.00;5.00;;;;;-146.44;100.00;58906.56;5014740;28;45493;-55
2022/11/29 06:03:12;;;;;;;;;9.33;9.33;;;;;-146.44;100.00;58906.56;5015530;28;45552;-53
2022/11/29 06:05:46;;;;;;;;;8.33;8.33;;;;;-146.44;100.00;58906.56;5014548;28;45585;-56
2022/11/29 06:08:49;;;;;;;;;8.67;8.67;;;;;-146.44;100.00;58906.56;5017767;28;46218;-53
2022/11/29 06:11:23;;;;;;;;;10.00;10.00;;;;;-146.44;100.00;58906.56;5017682;28;45504;-54
2022/11/29 06:14:07;;;;;;;;;10.00;10.00;;;;;-146.44;100.00;58906.56;5007221;28;45542;-55
2022/11/29 06:16:52;;;;;;;;;12.33;9.67;;;;;-146.44;100.00;58906.56;5004611;28;45588;-52
2022/11/29 06:19:39;;;;;;;;;9.67;9.00;;;;;-146.44;100.00;58906.56;5014187;28;45508;-52
2022/11/29 06:22:10;;;;;;;;;11.00;11.00;;;;;-146.44;100.00;58906.56;5026145;28;45461;-54
2022/11/29 06:24:49;;;;;;;;;11.67;11.67;;;;;-146.44;100.00;58906.56;5014700;28;45632;-55
2022/11/29 06:27:28;;;;;;;;;13.00;11.33;;;;;-146.44;100.00;58906.56;5002708;28;45474;-55
2022/11/29 06:30:01;;;;;;;;;11.00;9.67;;;;;-146.44;100.00;58906.56;5013936;28;46054;-54
2022/11/29 06:32:44;;;;;;;;;8.33;8.33;;;;;-146.44;100.00;58906.56;5017433;28;46027;-56
2022/11/29 06:35:34;;;;;;;;;10.00;9.00;;;;;-146.44;100.00;58906.56;5014138;28;45592;-53
2022/11/29 06:38:23;;;;;;;;;10.67;10.67;;;;;-146.44;100.00;58906.56;5013969;28;45641;-52
2022/11/29 06:40:51;;;;;;;;;12.00;10.00;;;;;-146.44;100.00;58906.56;5013556;28;45484;-55
2022/11/29 06:43:17;;;;;;;;;10.00;10.00;;;;;-146.44;100.00;58906.56;5014147;28;45529;-54
2022/11/29 06:45:50;;;;;;;;;11.67;11.67;;;;;-146.44;100.00;58906.56;5014010;28;45504;-56
2022/11/29 06:48:24;;;;;;;;;10.00;10.00;;;;;-146.44;100.00;58906.56;5014251;28;45640;-56
2022/11/29 06:51:04;;;;;;;;;12.00;12.00;;;;;-146.44;100.00;58906.56;5028943;28;46404;-53
2022/11/29 06:53:48;;;;;;;;;10.00;10.00;;;;;-146.44;100.00;58906.56;5013744;28;45922;-52
2022/11/29 06:56:25;;;;;;;;;15.33;12.33;;;;;-146.44;100.00;58906.56;5013974;28;45428;-57
2022/11/29 06:59:02;;;;;;;;;12.00;11.33;;;;;-146.44;100.00;58906.56;5013650;28;45560;-54
2022/11/29 07:01:36;;;;;;;;;11.00;11.00;;;;;-146.44;100.00;58906.56;5015783;28;45688;-55
2022/11/29 07:04:31;;;;;;;;;9.00;9.00;;;;;-146.44;100.00;58906.56;5012634;28;45534;-54
2022/11/29 07:06:56;;;;;;;;;6.67;4.33;;;;;-146.44;100.00;58906.56;5013422;28;45618;-57
2022/11/29 07:09:27;;;;;;;;;12.33;10.33;;;;;-146.44;100.00;58906.56;5020222;28;45541;-55
2022/11/29 07:11:53;;;;;;;;;12.00;12.00;;;;;-146.44;100.00;58906.56;5025028;28;45482;-57
2022/11/29 07:14:18;;;;;;;;;12.00;11.00;;;;;-146.44;100.00;58906.56;5016779;28;45487;-56
2022/11/29 07:17:07;;;;;;;;;15.00;13.00;;;;;-146.44;100.00;58906.56;5017280;28;45462;-56
2022/11/29 07:19:58;;;;;;;;;11.00;11.00;;;;;-146.44;100.00;58906.56;5017042;28;45494;-56
2022/11/29 07:22:31;;;;;;;;;9.67;9.67;;;;;-146.44;100.00;58906.56;5015200;28;47425;-54
2022/11/29 07:25:15;;;;;;;;;14.00;13.00;;;;;-146.44;100.00;58906.56;5019698;28;45502;-54
2022/11/29 07:28:07;;;;;;;;;10.33;10.33;;;;;-146.44;100.00;58906.56;5016921;28;45534;-55
2022/11/29 07:30:45;;;;;;;;;12.33;11.00;;;;;-146.44;100.00;58906.56;5016813;28;45454;-56
2022/11/29 07:33:24;;;;;;;;;12.00;12.00;;;;;-146.44;100.00;58906.56;5016815;28;45560;-55
2022/11/29 07:36:09;;;;;;;;;15.00;13.33;;;;;-146.44;100.00;58906.56;5016714;28;45477;-55
2022/11/29 07:39:09;;;;;;;;;12.00;12.00;;;;;-146.44;100.00;58906.56;5016873;28;45561;-54
2022/11/29 07:42:02;;;;;;;;;10.33;9.33;;;;;-146.44;100.00;58906.56;5016279;28;45652;-65
2022/11/29 07:44:30;;;;;;;;;13.33;13.00;;;;;-146.44;100.00;58906.56;5023315;28;45687;-63
2022/11/29 07:46:55;;;;;;;;;17.33;12.33;;;;;-146.44;100.00;58906.56;5012573;28;45554;-63
2022/11/29 07:49:20;;;;;;;;;10.00;10.00;;;;;-146.44;100.00;58906.56;5016193;28;50724;-64
2022/11/29 07:51:46;;;;;;;;;14.67;13.00;;;;;-146.44;100.00;58906.56;5016650;28;45450;-64
2022/11/29 07:54:16;;;;;;;;;12.00;12.00;;;;;-146.44;100.00;58906.56;5014208;28;46197;-63
2022/11/29 07:56:44;;;;;;;;;12.67;11.67;;;;;-146.44;100.00;58906.56;5016511;28;45521;-63
2022/11/29 07:59:11;;;;;;;;;12.00;10.00;;;;;-146.44;100.00;58906.56;5016385;28;45485;-63
2022/11/29 08:01:36;;;;;;;;;11.67;11.67;;;;;-146.44;100.00;58906.56;5020646;28;45449;-64
2022/11/29 08:04:01;;;;;;;;;12.00;12.00;;;;;-146.44;100.00;58906.56;5019561;28;45401;-64
2022/11/29 08:06:27;;;;;;;;;15.67;14.00;;;;;-146.44;100.00;58906.56;5016134;28;46214;-63
2022/11/29 08:08:52;;;;;;;;;14.00;13.67;;;;;-146.44;100.00;58906.56;5019794;28;45446;-61
2022/11/29 08:11:18;;;;;;;;;14.33;13.00;;;;;-146.44;100.00;58906.56;5002203;28;45548;-60
2022/11/29 08:13:43;;;;;;;;;19.67;18.67;;;;;-146.44;100.00;58906.56;5025730;28;46793;-59
2022/11/29 08:16:14;;;;;;;;;22.67;17.33;;;;;-146.44;100.00;58906.56;5016987;28;53088;-53
2022/11/29 08:18:39;;;;;;;;;25.00;22.00;;;;;-146.44;100.00;58906.56;5015916;28;45525;-66
2022/11/29 08:21:06;;;;;;;;;26.33;25.33;;;;;-146.44;100.00;58906.56;5019313;28;45637;-64
2022/11/29 08:23:31;;;;;;;;;24.00;24.00;;;;;-146.44;100.00;58906.56;5010131;28;45501;-52
2022/11/29 08:26:01;;;;;;;;;24.00;22.33;;;;;-146.44;100.00;58906.56;5016568;28;45390;-52
2022/11/29 08:28:26;;;;;;;;;25.33;22.33;;;;;-146.44;100.00;58906.56;5020242;28;45520;-50
2022/11/29 08:31:00;;;;;;;;;24.67;22.67;;;;;-146.44;100.00;58906.56;5016765;28;45485;-53
2022/11/29 08:33:25;;;;;;;;;25.67;25.33;;;;;-146.44;100.00;58906.56;5014708;28;45513;-51
2022/11/29 08:35:50;;;;;;;;;23.33;22.00;;;;;-146.44;100.00;58906.56;5014920;28;45514;-55
2022/11/29 08:38:16;;;;;;;;;20.33;19.00;;;;;-146.44;100.00;58906.56;5015078;28;45458;-55
2022/11/29 08:40:41;;;;;;;;;25.33;24.00;;;;;-146.44;100.00;58906.56;5001233;28;45604;-52
2022/11/29 08:43:06;;;;;;;;;24.67;24.67;;;;;-146.44;100.00;58906.56;5014456;28;55857;-55
2022/11/29 08:45:31;;;;;;;;;30.67;27.33;;;;;-146.44;100.00;58906.56;5014812;28;45512;-51
2022/11/29 08:47:57;;;;;;;;;30.67;30.00;;;;;-146.44;100.00;58906.56;5014779;28;45611;-51
2022/11/29 08:50:23;;;;;;;;;21.00;19.67;;;;;-146.44;100.00;58906.56;5014643;28;45402;-49
2022/11/29 08:55:39;;;;;;;;;28.67;27.67;;;;;-146.44;100.00;58906.56;5014638;28;45521;-55
2022/11/29 08:58:08;;;;;;;;;31.75;31.00;;;;;-146.44;100.00;58906.56;5015093;28;45446;-54
2022/11/29 09:00:33;;;;;;;;;41.25;36.25;;;;;-146.44;100.00;58906.56;5014738;28;45455;-54
2022/11/29 09:06:13;;;;;;;;;40.25;35.00;;;;;-146.44;100.00;58906.56;4952970;28;45626;-51
2022/11/29 09:08:39;;;;;;;;;41.00;36.25;;;;;-146.44;100.00;58906.56;5006156;28;45483;-56
2022/11/29 09:11:12;;;;;;;;;37.00;34.50;;;;;-146.44;100.00;58906.56;5014635;28;45386;-52
2022/11/29 09:13:38;;;;;;;;;36.75;31.75;;;;;-146.44;100.00;58906.56;5014705;28;46300;-55
2022/11/29 09:16:09;;;;;;;;;34.50;31.50;;;;;-146.44;100.00;58906.56;5014422;28;45525;-56
2022/11/29 09:18:36;;;;;;;;;38.25;35.00;;;;;-146.44;100.00;58906.56;5014720;28;45547;-55
2022/11/29 09:21:05;;;;;;;;;36.00;33.00;;;;;-146.44;100.00;58906.56;5015094;28;45619;-51
2022/11/29 09:23:31;;;;;;;;;30.00;28.25;;;;;-146.44;100.00;58906.56;5014218;28;45469;-55
2022/11/29 09:25:56;;;;;;;;;27.00;23.67;;;;;-146.44;100.00;58906.56;5014134;28;45544;-54
2022/11/29 09:28:21;;;;;;;;;33.33;28.67;;;;;-146.44;100.00;58906.56;5014304;28;45614;-52
2022/11/29 09:30:48;;;;;;;;;31.00;30.33;;;;;-146.44;100.00;58906.56;5014619;28;45507;-56
2022/11/29 09:33:13;;;;;;;;;36.33;33.00;;;;;-146.44;100.00;58906.56;5014242;28;46317;-55
2022/11/29 09:35:39;;;;;;;;;34.33;30.00;;;;;-146.44;100.00;58906.56;5014074;28;45499;-54
2022/11/29 09:38:04;;;;;;;;;26.67;25.33;;;;;-146.44;100.00;58906.56;5014135;28;45538;-53
2022/11/29 09:40:36;;;;;;;;;23.33;19.33;;;;;-146.44;100.00;58906.56;5013867;28;45538;-55
2022/11/29 09:43:16;;;;;;;;;23.33;20.67;;;;;-146.44;100.00;58906.56;5013902;28;46228;-53
2022/11/29 09:45:48;;;;;;;;;26.67;24.67;;;;;-146.44;100.00;58906.56;5013806;28;45431;-56
2022/11/29 09:48:25;;;;;;;;;23.67;23.00;;;;;-146.44;100.00;58906.56;5013789;28;45487;-51
2022/11/29 09:51:26;;;;;;;;;21.33;21.33;;;;;-146.44;100.00;58906.56;5013472;28;45533;-55
2022/11/29 09:54:04;;;;;;;;;22.00;21.33;;;;;-146.44;100.00;58906.56;5013314;28;46218;-53
2022/11/29 09:56:39;;;;;;;;;25.00;24.00;;;;;-146.44;100.00;58906.56;5013602;28;45518;-56
2022/11/29 09:59:18;;;;;;;;;27.00;23.33;;;;;-146.44;100.00;58906.56;5013925;28;45528;-55
2022/11/29 10:01:52;;;;;;;;;24.00;20.67;;;;;-146.44;100.00;58906.56;5013623;28;45469;-53
2022/11/29 10:04:23;;;;;;;;;26.00;20.33;;;;;-146.44;100.00;58906.56;5013482;28;46082;-51
2022/11/29 10:07:07;;;;;;;;;30.33;29.67;;;;;-146.44;100.00;58906.56;5013983;28;45459;-52
2022/11/29 10:09:43;;;;;;;;;21.33;20.67;;;;;-146.44;100.00;58906.56;5013548;28;45473;-54
2022/11/29 10:12:36;;;;;;;;;24.00;21.33;;;;;-146.44;100.00;58906.56;5013774;28;45488;-52
2022/11/29 10:15:12;;;;;;;;;19.00;19.00;;;;;-146.44;100.00;58906.56;5013571;28;45567;-53
2022/11/29 10:18:22;;;;;;;;;24.67;19.67;;;;;-146.44;100.00;58906.56;5013275;28;45505;-52
2022/11/29 10:20:52;;;;;;;;;29.33;27.00;;;;;-146.44;100.00;58906.56;5014034;28;45512;-52
2022/11/29 10:23:42;;;;;;;;;24.33;22.67;;;;;-146.44;100.00;58906.56;5013729;28;45524;-56
2022/11/29 10:26:10;;;;;;;;;33.00;26.67;;;;;-146.44;100.00;58906.56;5013198;28;45509;-51
2022/11/29 10:28:36;;;;;;;;;22.67;20.33;;;;;-146.44;100.00;58906.56;5013145;28;45558;-53
2022/11/29 10:31:33;;;;;;;;;27.67;27.67;;;;;-146.44;100.00;58906.56;5012105;28;45436;-53
2022/11/29 10:34:01;;;;;;;;;25.00;20.00;;;;;-146.44;100.00;58906.56;5000455;28;45501;-57
2022/11/29 10:36:32;;;;;;;;;25.67;24.00;;;;;-146.44;100.00;58906.56;5013326;28;45525;-56
2022/11/29 10:39:02;;;;;;;;;28.67;25.67;;;;;-146.44;100.00;58906.56;5012975;28;45383;-52
2022/11/29 10:41:28;;;;;;;;;22.33;22.33;;;;;-146.44;100.00;58906.56;5015409;28;45419;-54
2022/11/29 10:43:57;;;;;;;;;31.00;28.67;;;;;-146.44;100.00;58906.56;5016710;28;45501;-53
2022/11/29 10:46:34;;;;;;;;;22.67;22.33;;;;;-146.44;100.00;58906.56;5016713;28;45482;-52
2022/11/29 10:49:06;;;;;;;;;27.00;25.33;;;;;-146.44;100.00;58906.56;5016265;28;45575;-49
2022/11/29 10:51:32;;;;;;;;;31.00;27.67;;;;;-146.44;100.00;58906.56;5016684;28;45461;-55
2022/11/29 10:54:37;;;;;;;;;26.75;24.00;;;;;-146.44;100.00;58906.56;5016572;28;45573;-53
2022/11/29 10:57:12;;;;;;;;;31.00;26.67;;;;;-146.44;100.00;58906.56;5016443;28;46442;-54
2022/11/29 10:59:37;;;;;;;;;30.33;27.33;;;;;-146.44;100.00;58906.56;5016524;28;45484;-50
2022/11/29 11:02:03;;;;;;;;;24.33;22.33;;;;;-146.44;100.00;58906.56;5016739;28;45471;-50
2022/11/29 11:04:43;;;;;;;;;33.67;29.00;;;;;-146.44;100.00;58906.56;5016365;28;45759;-53
2022/11/29 11:07:22;;;;;;;;;27.67;26.67;;;;;-146.44;100.00;58906.56;5016456;28;46397;-56
2022/11/29 11:09:52;;;;;;;;;27.67;25.33;;;;;-146.44;100.00;58906.56;5016597;28;45553;-49
2022/11/29 11:12:26;;;;;;;;;28.00;23.33;;;;;-146.44;100.00;58906.56;5016503;28;45537;-54
2022/11/29 11:15:12;;;;;;;;;23.33;22.33;;;;;-146.44;100.00;58906.56;5016261;28;45513;-54
2022/11/29 11:17:41;;;;;;;;;23.00;19.33;;;;;-146.44;100.00;58906.56;5016089;28;45481;-52
2022/11/29 11:20:18;;;;;;;;;25.67;25.00;;;;;-146.44;100.00;58906.56;5016313;28;45425;-55
2022/11/29 11:22:58;;;;;;;;;27.33;25.67;;;;;-146.44;100.00;58906.56;5016802;28;45778;-54
2022/11/29 11:25:33;;;;;;;;;27.00;25.00;;;;;-146.44;100.00;58906.56;5015816;28;45530;-57
2022/11/29 11:28:14;;;;;;;;;28.67;26.00;;;;;-146.44;100.00;58906.56;5031408;28;46323;-58
2022/11/29 11:30:49;;;;;;;;;24.33;22.00;;;;;-146.44;100.00;58906.56;5015878;28;45568;-55
2022/11/29 11:33:26;;;;;;;;;32.67;27.33;;;;;-146.44;100.00;58906.56;5015739;28;45609;-54
2022/11/29 11:36:22;;;;;;;;;32.50;30.75;;;;;-146.44;100.00;58906.56;5015783;28;45543;-55
2022/11/29 11:38:55;;;;;;;;;33.67;29.33;;;;;-146.44;100.00;58906.56;5015102;28;46089;-50
2022/11/29 11:44:35;;;;;;;;;29.25;29.25;;;;;-146.44;100.00;58906.56;4984778;28;45538;-57
2022/11/29 11:47:04;;;;;;;;;29.00;24.67;;;;;-146.44;100.00;58906.56;5015830;28;45514;-51
2022/11/29 11:49:35;;;;;;;;;29.67;26.00;;;;;-146.44;100.00;58906.56;5015840;28;46126;-54